Hlavní strana
METAR-TAF:

METAR-TAF

Letiště :

Toblach, Itálie

zeměpisná šířka: 46-44N, zeměpisná délka: 012-13E, výška: 1222 m

Aktuální stav počasí

Zpráva byla vytvořena před 21 minutami, v 12:55 UTC
Západní vítr 8 kt, proměnlivý mezi západojihozápadním a severozápadním
Teplota 24°C
Vlhkost vzduchu 25%
Tlak 1025 hPa

METAR: LIVD 141255Z AUTO 28008KT 240V310 //// 24/03 Q1025

Čas: 15:16 (13:16 UTC)


TAF: chybějící

Stav a předpovědi počasí z více než 4 000 letišť (zprávy METAR a TAF).

Červené a žluté tečky na mapě představují dostupné meteorologické stanice.

Když kurzor umístíte na tečku, zobrazí se název stanice.

Pak kliknutím zobrazíte stav a předpověď počasí.

Chcete-li změnit mapu, kliknutím na zelené tlačítko se znaménkem +mapu přiblížíte, kliknutím na zelené tlačítko se znaménkem – mapu oddálíte a kliknutím na zelené šipky přejdete na sousední mapy.


METAR-TAF: